createdAt,value
2023-03-21T00:00:23.995Z,3.20
2023-03-21T00:02:51.345Z,3.10
2023-03-21T00:05:18.259Z,3.40
2023-03-21T00:07:45.104Z,3.25
2023-03-21T00:10:16.694Z,3.28
2023-03-21T00:12:50.507Z,3.00
2023-03-21T00:15:20.587Z,3.35
2023-03-21T00:17:50.953Z,3.00
2023-03-21T00:20:17.707Z,3.08
2023-03-21T00:22:44.579Z,3.42
2023-03-21T00:25:11.378Z,3.20
2023-03-21T00:28:01.426Z,3.25
2023-03-21T00:30:25.113Z,3.33
2023-03-21T00:32:56.544Z,3.08
2023-03-21T00:35:57.477Z,3.10
2023-03-21T00:38:11.334Z,3.58
2023-03-21T00:40:43.712Z,3.10
2023-03-21T00:43:17.822Z,2.85
2023-03-21T00:45:45.504Z,3.33
2023-03-21T00:48:12.812Z,3.65
2023-03-21T00:50:40.816Z,3.00
2023-03-21T00:53:07.832Z,3.05
2023-03-21T00:55:34.973Z,3.33
2023-03-21T00:58:02.732Z,3.80
2023-03-21T01:00:30.228Z,3.15
2023-03-21T01:03:08.529Z,3.03
2023-03-21T01:05:50.406Z,3.50
2023-03-21T01:08:26.586Z,3.53
2023-03-21T01:10:56.721Z,3.60
2023-03-21T01:13:25.507Z,3.75
2023-03-21T01:15:55.415Z,3.17
2023-03-21T01:18:27.430Z,3.22
2023-03-21T01:20:56.911Z,2.80
2023-03-21T01:23:24.870Z,2.80
2023-03-21T01:25:54.331Z,3.10
2023-03-21T01:28:21.766Z,3.05
2023-03-21T01:30:50.491Z,3.00
2023-03-21T01:33:18.583Z,2.90
2023-03-21T01:35:53.364Z,2.85
2023-03-21T01:38:24.964Z,3.55
2023-03-21T01:40:52.329Z,2.90
2023-03-21T01:43:26.871Z,3.30
2023-03-21T01:46:04.857Z,3.05
2023-03-21T01:48:33.100Z,3.30
2023-03-21T01:51:01.051Z,3.03
2023-03-21T01:53:30.939Z,3.30
2023-03-21T01:56:02.132Z,3.70
2023-03-21T01:58:30.222Z,3.58
2023-03-21T02:00:57.085Z,3.30
2023-03-21T02:03:35.374Z,3.90
2023-03-21T02:06:04.768Z,3.55
2023-03-21T02:08:39.206Z,3.97
2023-03-21T02:11:07.813Z,3.75
2023-03-21T02:13:35.762Z,3.45
2023-03-21T02:16:05.787Z,3.72
2023-03-21T02:18:32.579Z,3.88
2023-03-21T02:21:05.773Z,3.40
2023-03-21T02:23:53.596Z,3.60
2023-03-21T02:26:41.096Z,3.20
2023-03-21T02:29:24.399Z,3.65
2023-03-21T02:32:17.930Z,3.47
2023-03-21T02:35:06.625Z,3.88
2023-03-21T02:37:38.898Z,3.30
2023-03-21T02:40:12.142Z,3.35
2023-03-21T02:43:00.990Z,3.08
2023-03-21T02:45:36.199Z,2.88
2023-03-21T02:48:06.834Z,3.17
2023-03-21T02:50:43.834Z,3.25
2023-03-21T02:53:15.017Z,3.10
2023-03-21T02:55:44.022Z,3.00
2023-03-21T02:58:14.054Z,3.13
2023-03-21T03:00:43.581Z,3.40
2023-03-21T03:03:17.942Z,3.38
2023-03-21T03:05:56.038Z,3.63
2023-03-21T03:09:02.178Z,3.75
2023-03-21T03:11:33.849Z,3.75
2023-03-21T03:14:25.256Z,3.58
2023-03-21T03:17:05.756Z,3.95
2023-03-21T03:19:49.706Z,3.70
2023-03-21T03:22:49.800Z,4.20
2023-03-21T03:25:35.840Z,4.00
2023-03-21T03:28:09.368Z,3.97
2023-03-21T03:30:46.517Z,4.07
2023-03-21T03:33:18.058Z,4.00
2023-03-21T03:35:48.256Z,3.90
2023-03-21T03:38:22.408Z,3.40
2023-03-21T03:40:55.485Z,3.70
2023-03-21T03:43:29.963Z,3.83
2023-03-21T03:46:05.057Z,3.85
2023-03-21T03:48:46.751Z,3.78
2023-03-21T03:51:21.531Z,3.40
2023-03-21T03:53:56.122Z,3.30
2023-03-21T03:56:25.751Z,3.33
2023-03-21T03:58:52.604Z,3.67
2023-03-21T04:01:19.456Z,3.47
2023-03-21T04:03:52.974Z,3.40
2023-03-21T04:06:26.404Z,3.30
2023-03-21T04:08:53.083Z,3.53
2023-03-21T04:11:19.868Z,3.60
2023-03-21T04:13:46.710Z,3.50
2023-03-21T04:16:14.449Z,3.78
2023-03-21T04:18:42.112Z,3.67
2023-03-21T04:21:11.354Z,3.80
2023-03-21T04:23:38.474Z,3.85
2023-03-21T04:26:07.903Z,3.45
2023-03-21T04:28:36.463Z,3.95
2023-03-21T04:31:15.967Z,3.85
2023-03-21T04:33:50.205Z,5.00
2023-03-21T04:36:27.776Z,4.10
2023-03-21T04:38:57.368Z,3.60
2023-03-21T04:41:24.076Z,3.63
2023-03-21T04:43:52.494Z,3.20
2023-03-21T04:46:19.576Z,4.60
2023-03-21T04:48:49.830Z,4.15
2023-03-21T04:51:17.189Z,3.60
2023-03-21T04:53:46.039Z,3.78
2023-03-21T04:56:13.044Z,3.53
2023-03-21T04:58:40.816Z,3.33
2023-03-21T05:01:08.461Z,4.68
2023-03-21T05:03:40.472Z,3.88
2023-03-21T05:06:08.817Z,4.55
2023-03-21T05:08:36.591Z,3.83
2023-03-21T05:11:06.154Z,4.25
2023-03-21T05:13:32.836Z,4.18
2023-03-21T05:15:59.536Z,4.20
2023-03-21T05:18:26.838Z,3.92
2023-03-21T05:20:57.159Z,4.13
2023-03-21T05:23:24.599Z,3.95
2023-03-21T05:25:51.799Z,4.18
2023-03-21T05:28:19.000Z,4.03
2023-03-21T05:30:46.821Z,4.78
2023-03-21T05:33:13.757Z,4.25
2023-03-21T05:35:40.956Z,4.65
2023-03-21T05:38:08.318Z,4.45
2023-03-21T05:40:35.138Z,4.00
2023-03-21T05:43:01.928Z,4.40
2023-03-21T05:45:28.715Z,4.68
2023-03-21T05:47:55.596Z,4.43
2023-03-21T05:50:22.258Z,4.70
2023-03-21T05:52:48.943Z,4.68
2023-03-21T05:55:15.846Z,4.43
2023-03-21T05:57:42.698Z,4.38
2023-03-21T06:00:10.582Z,4.40
2023-03-21T06:02:37.742Z,4.20
2023-03-21T06:07:30.301Z,4.50
2023-03-21T06:09:57.058Z,4.22
2023-03-21T06:12:26.629Z,4.55
2023-03-21T06:14:53.400Z,4.82
2023-03-21T06:17:20.468Z,6.07
2023-03-21T06:19:47.123Z,5.68
2023-03-21T06:22:14.029Z,4.78
2023-03-21T06:24:40.697Z,4.72
2023-03-21T06:27:07.442Z,4.60
2023-03-21T06:29:34.234Z,6.70
2023-03-21T06:32:01.482Z,5.00
2023-03-21T06:34:28.363Z,5.25
2023-03-21T06:36:55.219Z,5.07
2023-03-21T06:39:21.995Z,5.00
2023-03-21T06:41:48.801Z,5.00
2023-03-21T06:44:15.559Z,5.47
2023-03-21T06:46:42.892Z,5.15
2023-03-21T06:49:09.702Z,5.15
2023-03-21T06:51:37.680Z,5.35
2023-03-21T06:56:30.898Z,5.25
2023-03-21T06:58:57.722Z,5.28
2023-03-21T07:01:24.868Z,6.07
2023-03-21T07:03:53.760Z,6.00
2023-03-21T07:06:20.536Z,5.80
2023-03-21T07:08:48.272Z,5.45
2023-03-21T07:11:14.993Z,5.97
2023-03-21T07:13:41.637Z,5.47
2023-03-21T07:16:08.981Z,5.80
2023-03-21T07:18:36.128Z,5.75
2023-03-21T07:21:03.095Z,5.68
2023-03-21T07:23:30.014Z,5.38
2023-03-21T07:25:57.032Z,5.88
2023-03-21T07:28:23.921Z,6.00
2023-03-21T07:30:57.766Z,6.38
2023-03-21T07:33:26.390Z,6.55
2023-03-21T07:35:54.653Z,6.60
2023-03-21T07:38:22.011Z,6.57
2023-03-21T07:40:49.472Z,6.70
2023-03-21T07:48:30.964Z,5.47
2023-03-21T07:50:57.715Z,5.72
2023-03-21T07:53:24.616Z,4.93
2023-03-21T07:55:58.664Z,5.28
2023-03-21T07:58:27.094Z,5.20
2023-03-21T08:00:55.785Z,4.85
2023-03-21T08:03:24.204Z,5.28
2023-03-21T08:05:51.280Z,5.43
2023-03-21T08:08:18.289Z,5.63
2023-03-21T08:10:45.569Z,5.30
2023-03-21T08:13:13.327Z,5.47
2023-03-21T08:15:42.607Z,5.30
2023-03-21T08:18:10.385Z,5.40
2023-03-21T08:20:37.549Z,5.60
2023-03-21T08:25:31.033Z,4.97
2023-03-21T08:27:57.680Z,5.05
2023-03-21T08:30:28.285Z,4.97
2023-03-21T08:33:01.429Z,5.32
2023-03-21T08:35:29.631Z,5.60
2023-03-21T08:37:56.372Z,4.50
2023-03-21T08:40:23.172Z,5.88
2023-03-21T08:42:49.906Z,5.25
2023-03-21T08:45:18.466Z,5.32
2023-03-21T08:47:46.343Z,5.80
2023-03-21T08:50:20.042Z,4.90
2023-03-21T08:52:46.802Z,4.90
2023-03-21T08:55:14.471Z,4.75
2023-03-21T08:57:41.892Z,4.90
2023-03-21T09:00:14.049Z,4.55
2023-03-21T09:02:45.616Z,4.53
2023-03-21T09:05:12.391Z,5.20
2023-03-21T09:07:40.790Z,4.43
2023-03-21T09:10:25.640Z,4.63
2023-03-21T09:12:54.759Z,3.97
2023-03-21T09:15:24.715Z,4.80
2023-03-21T09:17:54.399Z,4.15
2023-03-21T09:20:26.462Z,4.00
2023-03-21T09:22:53.985Z,4.07
2023-03-21T09:25:21.674Z,4.28
2023-03-21T09:27:48.885Z,3.80
2023-03-21T09:30:24.274Z,3.60
2023-03-21T09:32:53.659Z,4.00
2023-03-21T09:35:21.328Z,4.10
2023-03-21T09:37:49.231Z,4.20
2023-03-21T09:40:20.397Z,3.90
2023-03-21T09:43:07.110Z,3.65
2023-03-21T09:45:44.019Z,3.95
2023-03-21T09:48:30.377Z,3.90
2023-03-21T09:50:58.058Z,3.72
2023-03-21T09:53:39.124Z,2.95
2023-03-21T09:56:07.060Z,3.92
2023-03-21T09:58:40.532Z,3.75
2023-03-21T10:01:35.429Z,3.60
2023-03-21T10:04:06.519Z,3.65
2023-03-21T10:06:40.717Z,3.15
2023-03-21T10:09:15.241Z,3.70
2023-03-21T10:11:46.840Z,3.05
2023-03-21T10:14:21.417Z,3.30
2023-03-21T10:16:52.385Z,4.18
2023-03-21T10:19:20.165Z,3.45
2023-03-21T10:22:00.250Z,3.50
2023-03-21T10:24:29.793Z,3.83
2023-03-21T10:26:57.687Z,3.58
2023-03-21T10:29:29.198Z,3.63
2023-03-21T10:31:56.184Z,4.07
2023-03-21T10:34:32.957Z,3.75
2023-03-21T10:39:38.013Z,3.40
2023-03-21T10:44:34.028Z,3.30
2023-03-21T10:47:06.517Z,3.80
2023-03-21T10:49:40.545Z,3.13
2023-03-21T10:52:13.967Z,4.18
2023-03-21T10:54:40.861Z,3.50
2023-03-21T10:57:20.143Z,3.35
2023-03-21T10:59:55.364Z,3.75
2023-03-21T11:02:37.602Z,3.58
2023-03-21T11:07:32.437Z,3.45
2023-03-21T11:10:01.334Z,2.78
2023-03-21T11:12:40.919Z,2.90
2023-03-21T11:15:31.034Z,3.30
2023-03-21T11:17:59.488Z,3.00
2023-03-21T11:20:31.285Z,3.08
2023-03-21T11:22:57.964Z,3.33
2023-03-21T11:25:37.178Z,3.20
2023-03-21T11:28:06.739Z,3.30
2023-03-21T11:30:33.860Z,4.13
2023-03-21T11:33:06.395Z,3.90
2023-03-21T11:35:38.588Z,3.60
2023-03-21T11:38:23.414Z,3.38
2023-03-21T11:40:56.713Z,3.28
2023-03-21T11:43:35.042Z,3.20
2023-03-21T11:48:39.690Z,3.10
2023-03-21T11:51:19.626Z,2.85
2023-03-21T11:53:55.000Z,3.63
2023-03-21T11:56:36.608Z,3.08
2023-03-21T11:59:07.007Z,3.10
2023-03-21T12:02:00.608Z,3.00
2023-03-21T12:04:31.838Z,3.05
2023-03-21T12:07:05.167Z,2.83
2023-03-21T12:09:37.493Z,3.00
2023-03-21T12:12:06.050Z,2.80
2023-03-21T12:14:57.415Z,3.00
2023-03-21T12:17:39.469Z,2.95
2023-03-21T12:20:43.366Z,2.75
2023-03-21T12:23:21.802Z,3.15
2023-03-21T12:28:33.273Z,2.90
2023-03-21T12:31:05.236Z,3.28
2023-03-21T12:34:06.161Z,3.22
2023-03-21T12:36:59.210Z,2.70
2023-03-21T12:39:36.989Z,3.03
2023-03-21T12:42:06.099Z,3.50
2023-03-21T12:44:37.984Z,3.28
2023-03-21T12:47:06.238Z,3.15
2023-03-21T12:49:38.566Z,3.08
2023-03-21T12:52:06.166Z,2.92
2023-03-21T12:54:39.174Z,2.83
2023-03-21T12:57:14.999Z,4.22
2023-03-21T12:59:54.498Z,3.53
2023-03-21T13:02:35.053Z,3.35
2023-03-21T13:07:36.317Z,3.20
2023-03-21T13:10:06.161Z,2.60
2023-03-21T13:12:44.866Z,2.60
2023-03-21T13:15:31.635Z,2.28
2023-03-21T13:18:06.093Z,2.55
2023-03-21T13:20:47.457Z,2.40
2023-03-21T13:23:14.340Z,2.30
2023-03-21T13:25:50.117Z,2.78
2023-03-21T13:28:26.332Z,2.30
2023-03-21T13:30:54.309Z,2.83
2023-03-21T13:33:24.773Z,3.40
2023-03-21T13:36:07.491Z,2.38
2023-03-21T13:38:40.321Z,2.55
2023-03-21T13:41:14.378Z,2.30
2023-03-21T13:43:51.516Z,2.42
2023-03-21T13:46:27.049Z,2.78
2023-03-21T13:48:58.758Z,2.35
2023-03-21T13:51:28.499Z,2.17
2023-03-21T13:54:05.477Z,2.65
2023-03-21T13:56:47.673Z,2.63
2023-03-21T13:59:17.776Z,2.75
2023-03-21T14:04:42.420Z,2.63
2023-03-21T14:07:31.432Z,2.50
2023-03-21T14:10:05.196Z,3.13
2023-03-21T14:12:37.691Z,2.80
2023-03-21T14:15:15.914Z,2.50
2023-03-21T14:17:54.428Z,2.60
2023-03-21T14:20:28.294Z,2.85
2023-03-21T14:22:55.706Z,2.90
2023-03-21T14:25:29.161Z,2.97
2023-03-21T14:28:01.974Z,3.35
2023-03-21T14:30:40.509Z,3.65
2023-03-21T14:33:22.667Z,2.42
2023-03-21T14:35:50.311Z,3.22
2023-03-21T14:38:24.194Z,3.47
2023-03-21T14:40:55.323Z,2.83
2023-03-21T14:43:23.864Z,2.70
2023-03-21T14:45:55.432Z,2.63
2023-03-21T14:48:30.508Z,2.75
2023-03-21T14:51:02.150Z,3.53
2023-03-21T14:53:32.050Z,2.90
2023-03-21T14:55:58.889Z,2.97
2023-03-21T14:58:26.926Z,3.40
2023-03-21T15:00:57.690Z,3.00
2023-03-21T15:03:27.813Z,3.00
2023-03-21T15:05:59.255Z,3.20
2023-03-21T15:08:28.236Z,3.03
2023-03-21T15:11:07.259Z,3.28
2023-03-21T15:13:46.320Z,3.10
2023-03-21T15:16:15.149Z,3.72
2023-03-21T15:18:44.301Z,4.00
2023-03-21T15:21:19.703Z,3.63
2023-03-21T15:23:50.201Z,4.00
2023-03-21T15:26:19.684Z,4.05
2023-03-21T15:28:48.982Z,4.22
2023-03-21T15:31:18.704Z,4.20
2023-03-21T15:33:47.833Z,4.07
2023-03-21T15:36:21.378Z,4.65
2023-03-21T15:38:49.226Z,5.40
2023-03-21T15:41:17.797Z,4.35
2023-03-21T15:43:45.155Z,4.50
2023-03-21T15:46:17.902Z,4.50
2023-03-21T15:48:45.172Z,4.53
2023-03-21T15:51:22.295Z,3.90
2023-03-21T15:53:53.455Z,5.43
2023-03-21T15:56:22.418Z,3.90
2023-03-21T15:58:53.005Z,3.92
2023-03-21T16:01:22.407Z,4.85
2023-03-21T16:04:02.435Z,4.90
2023-03-21T16:06:34.250Z,4.38
2023-03-21T16:09:06.444Z,5.22
2023-03-21T16:11:43.337Z,4.53
2023-03-21T16:14:13.026Z,4.70
2023-03-21T16:16:42.842Z,4.93
2023-03-21T16:19:09.655Z,4.43
2023-03-21T16:21:38.575Z,5.53
2023-03-21T16:24:06.402Z,4.75
2023-03-21T16:26:36.669Z,4.82
2023-03-21T16:31:34.739Z,4.60
2023-03-21T16:34:02.031Z,4.15
2023-03-21T16:36:36.925Z,4.82
2023-03-21T16:39:07.254Z,4.47
2023-03-21T16:41:34.216Z,4.40
2023-03-21T16:44:02.319Z,4.40
2023-03-21T16:46:29.824Z,5.38
2023-03-21T16:48:58.192Z,5.07
2023-03-21T16:51:31.925Z,4.50
2023-03-21T16:53:59.696Z,4.85
2023-03-21T16:56:28.259Z,4.95
2023-03-21T16:58:56.217Z,5.50
2023-03-21T17:01:30.325Z,5.72
2023-03-21T17:04:00.975Z,5.13
2023-03-21T17:06:30.081Z,5.75
2023-03-21T17:08:59.016Z,5.82
2023-03-21T17:11:31.629Z,5.47
2023-03-21T17:13:58.469Z,5.88
2023-03-21T17:16:27.399Z,5.50
2023-03-21T17:18:55.148Z,5.43
2023-03-21T17:21:27.020Z,6.03
2023-03-21T17:23:54.975Z,5.53
2023-03-21T17:26:27.578Z,6.85
2023-03-21T17:29:00.015Z,6.03
2023-03-21T17:31:28.648Z,7.13
2023-03-21T17:33:55.734Z,6.32
2023-03-21T17:36:32.699Z,5.80
2023-03-21T17:38:59.964Z,5.25
2023-03-21T17:41:27.735Z,6.28
2023-03-21T17:43:55.951Z,5.47
2023-03-21T17:46:25.349Z,6.32
2023-03-21T17:48:52.256Z,5.68
2023-03-21T17:51:19.808Z,7.10
2023-03-21T17:53:49.430Z,7.13
2023-03-21T17:56:30.903Z,6.18
2023-03-21T17:59:00.242Z,6.50
2023-03-21T18:01:27.612Z,8.30
2023-03-21T18:03:57.255Z,8.48
2023-03-21T18:06:26.700Z,8.32
2023-03-21T18:08:55.178Z,9.88
2023-03-21T18:11:24.247Z,9.60
2023-03-21T18:13:51.409Z,10.45
2023-03-21T18:16:21.533Z,10.20
2023-03-21T18:18:49.072Z,10.20
2023-03-21T18:21:19.253Z,10.43
2023-03-21T18:23:50.142Z,10.32
2023-03-21T18:26:19.826Z,12.55
2023-03-21T18:29:15.071Z,11.95
2023-03-21T18:31:30.861Z,12.43
2023-03-21T18:33:57.790Z,11.32
2023-03-21T18:36:27.833Z,11.35
2023-03-21T18:38:56.871Z,11.20
2023-03-21T18:41:23.729Z,11.20
2023-03-21T18:44:18.470Z,12.25
2023-03-21T18:46:31.047Z,12.32
2023-03-21T18:48:57.985Z,13.10
2023-03-21T18:51:25.524Z,11.55
2023-03-21T18:53:52.520Z,11.25
2023-03-21T18:57:05.817Z,10.95
2023-03-21T18:59:07.558Z,14.57
2023-03-21T19:01:35.381Z,12.10
2023-03-21T19:04:21.495Z,13.00
2023-03-21T19:06:31.290Z,12.65
2023-03-21T19:08:58.038Z,12.98
2023-03-21T19:11:24.901Z,13.32
2023-03-21T19:13:53.372Z,13.23
2023-03-21T19:16:20.161Z,14.48
2023-03-21T19:18:54.845Z,13.10
2023-03-21T19:21:24.392Z,13.68
2023-03-21T19:24:22.919Z,14.18
2023-03-21T19:26:31.053Z,14.02
2023-03-21T19:28:57.766Z,13.35
2023-03-21T19:31:25.091Z,12.63
2023-03-21T19:33:52.056Z,12.85
2023-03-21T19:36:22.953Z,11.23
2023-03-21T19:38:51.142Z,11.95
2023-03-21T19:41:20.173Z,12.95
2023-03-21T19:43:54.289Z,12.43
2023-03-21T19:46:25.164Z,13.65
2023-03-21T19:48:56.187Z,14.02
2023-03-21T19:51:29.864Z,13.10
2023-03-21T19:53:58.339Z,13.43
2023-03-21T19:56:27.271Z,13.40
2023-03-21T19:58:55.423Z,15.20
2023-03-21T20:01:24.207Z,14.10
2023-03-21T20:03:51.702Z,15.55
2023-03-21T20:06:18.789Z,15.70
2023-03-21T20:11:31.751Z,15.57
2023-03-21T20:13:59.989Z,16.77
2023-03-21T20:16:34.120Z,17.13
2023-03-21T20:19:02.715Z,16.23
2023-03-21T20:21:47.661Z,17.13
2023-03-21T20:24:17.441Z,20.17
2023-03-21T20:26:45.402Z,19.45
2023-03-21T20:31:59.822Z,19.23
2023-03-21T20:34:27.259Z,19.52
2023-03-21T20:36:54.897Z,19.25
2023-03-21T20:39:22.292Z,18.77
2023-03-21T20:41:49.082Z,18.30
2023-03-21T20:44:48.158Z,18.65
2023-03-21T20:47:06.489Z,19.13
2023-03-21T20:49:33.687Z,19.45
2023-03-21T20:54:31.628Z,19.63
2023-03-21T20:56:58.418Z,20.02
2023-03-21T20:59:28.008Z,21.05
2023-03-21T21:01:58.252Z,21.40
2023-03-21T21:07:21.547Z,22.83
2023-03-21T21:09:48.971Z,21.45
2023-03-21T21:12:19.663Z,23.83
2023-03-21T21:14:48.036Z,23.20
2023-03-21T21:17:31.177Z,22.70
2023-03-21T21:22:31.554Z,23.73
2023-03-21T21:24:58.491Z,23.55
2023-03-21T21:27:25.279Z,23.25
2023-03-21T21:29:52.551Z,23.58
2023-03-21T21:32:19.856Z,24.77
2023-03-21T21:34:47.992Z,24.05
2023-03-21T21:37:15.518Z,24.00
2023-03-21T21:39:42.298Z,24.08
2023-03-21T21:42:09.209Z,24.95
2023-03-21T21:44:37.485Z,25.95
2023-03-21T21:47:06.657Z,42.33
2023-03-21T21:49:33.605Z,36.22
2023-03-21T21:54:34.210Z,31.30
2023-03-21T21:57:01.636Z,30.65
2023-03-21T21:59:28.714Z,27.05
2023-03-21T22:01:56.926Z,26.85
2023-03-21T22:04:28.108Z,25.23
2023-03-21T22:06:57.699Z,24.55
2023-03-21T22:09:24.547Z,24.83
2023-03-21T22:11:51.546Z,23.70
2023-03-21T22:14:18.248Z,24.60
2023-03-21T22:16:44.999Z,22.92
2023-03-21T22:19:11.826Z,22.60
2023-03-21T22:21:38.718Z,22.17
2023-03-21T22:24:06.814Z,22.15
2023-03-21T22:26:33.787Z,21.23
2023-03-21T22:29:01.611Z,19.70
2023-03-21T22:31:28.399Z,20.45
2023-03-21T22:33:55.094Z,20.25
2023-03-21T22:36:21.864Z,19.27
2023-03-21T22:38:48.524Z,21.38
2023-03-21T22:41:15.602Z,18.88
2023-03-21T22:43:42.291Z,18.75
2023-03-21T22:46:09.161Z,18.95
2023-03-21T22:48:36.073Z,18.55
2023-03-21T22:51:02.921Z,17.75
2023-03-21T22:53:30.942Z,18.65
2023-03-21T22:55:57.783Z,17.90
2023-03-21T22:58:24.855Z,18.33
2023-03-21T23:00:52.083Z,21.90
2023-03-21T23:03:19.405Z,25.30
2023-03-21T23:05:46.230Z,25.80
2023-03-21T23:08:13.385Z,26.60
2023-03-21T23:10:43.899Z,26.80
2023-03-21T23:13:11.241Z,26.00
2023-03-21T23:15:40.988Z,26.88
2023-03-21T23:18:08.198Z,26.77
2023-03-21T23:20:35.241Z,26.70
2023-03-21T23:23:02.496Z,28.63
2023-03-21T23:25:30.555Z,25.33
2023-03-21T23:27:57.600Z,25.08
2023-03-21T23:30:24.458Z,26.98
2023-03-21T23:32:51.257Z,25.70
2023-03-21T23:35:18.187Z,25.02
2023-03-21T23:37:52.318Z,21.70
2023-03-21T23:40:20.236Z,19.58
2023-03-21T23:42:46.957Z,19.35
2023-03-21T23:45:13.735Z,19.02
2023-03-21T23:47:40.724Z,18.08
2023-03-21T23:50:09.822Z,18.98
2023-03-21T23:52:37.624Z,18.50
2023-03-21T23:55:06.498Z,19.13
2023-03-21T23:57:33.365Z,19.75
